Time;durP1;ratioP1;P1;durP2;ratioP2;P2;SDS_P1;SDS_P2;PMS_P1;PMS_P2;Temp;Humidity;BMP_temperature;BMP_pressure;BME280_temperature;BME280_humidity;BME280_pressure;Samples;Min_cycle;Max_cycle;Signal;HPM_P1;HPM_P2
2023/10/20 00:00:51;;;;;;;;;0.00;0.00;;;;;;;;5075565;28;45482;-64
2023/10/20 00:03:16;;;;;;;;;0.00;0.00;;;;;;;;5074506;28;45371;-64
2023/10/20 00:05:42;;;;;;;;;0.00;0.00;;;;;;;;5075031;28;46873;-64
2023/10/20 00:08:07;;;;;;;;;0.00;0.00;;;;;;;;5082700;27;45390;-64
2023/10/20 00:10:35;;;;;;;;;0.00;0.00;;;;;;;;5095494;27;45433;-63
2023/10/20 00:13:00;;;;;;;;;0.00;0.00;;;;;;;;5095253;27;45351;-64
2023/10/20 00:15:26;;;;;;;;;0.00;0.00;;;;;;;;5076668;27;46518;-65
2023/10/20 00:17:51;;;;;;;;;0.00;0.00;;;;;;;;5095314;27;45396;-64
2023/10/20 00:20:17;;;;;;;;;0.00;0.00;;;;;;;;5095558;27;45301;-64
2023/10/20 00:22:43;;;;;;;;;0.00;0.00;;;;;;;;5095880;27;45446;-64
2023/10/20 00:25:11;;;;;;;;;0.00;0.00;;;;;;;;5095190;27;45491;-64
2023/10/20 00:27:36;;;;;;;;;0.00;0.00;;;;;;;;5095208;27;45437;-63
2023/10/20 00:30:02;;;;;;;;;0.00;0.00;;;;;;;;5095568;27;45403;-64
2023/10/20 00:32:27;;;;;;;;;0.00;0.00;;;;;;;;5076499;27;45556;-64
2023/10/20 00:34:53;;;;;;;;;0.00;0.00;;;;;;;;5095116;27;47268;-64
2023/10/20 00:37:18;;;;;;;;;0.00;0.00;;;;;;;;5095058;27;45442;-64
2023/10/20 00:39:44;;;;;;;;;0.00;0.00;;;;;;;;5095091;27;45493;-64
2023/10/20 00:42:09;;;;;;;;;0.00;0.00;;;;;;;;5094913;27;45414;-64
2023/10/20 00:44:34;;;;;;;;;0.00;0.00;;;;;;;;5080400;27;46400;-64
2023/10/20 00:46:59;;;;;;;;;0.00;0.00;;;;;;;;5074176;28;45306;-64
2023/10/20 00:49:25;;;;;;;;;0.00;0.00;;;;;;;;5074712;28;45794;-64
2023/10/20 00:51:50;;;;;;;;;0.00;0.00;;;;;;;;5076940;28;45429;-63
2023/10/20 00:54:16;;;;;;;;;0.00;0.00;;;;;;;;5077669;28;45696;-64
2023/10/20 00:56:42;;;;;;;;;0.00;0.00;;;;;;;;5078069;28;45317;-64
2023/10/20 00:59:08;;;;;;;;;0.00;0.00;;;;;;;;5078497;28;45380;-64
2023/10/20 01:01:33;;;;;;;;;0.00;0.00;;;;;;;;5078170;28;45599;-64
2023/10/20 01:03:59;;;;;;;;;0.00;0.00;;;;;;;;5077453;28;45583;-63
2023/10/20 01:06:25;;;;;;;;;0.00;0.00;;;;;;;;5077990;28;45442;-64
2023/10/20 01:08:54;;;;;;;;;0.00;0.00;;;;;;;;5092095;27;45409;-64
2023/10/20 01:11:19;;;;;;;;;0.00;0.00;;;;;;;;5098529;27;45436;-64
2023/10/20 01:13:44;;;;;;;;;0.00;0.00;;;;;;;;5098049;27;46582;-64
2023/10/20 01:16:09;;;;;;;;;0.00;0.00;;;;;;;;5098742;27;45356;-64
2023/10/20 01:18:35;;;;;;;;;1.00;0.00;;;;;;;;5098163;27;45357;-64
2023/10/20 01:21:00;;;;;;;;;0.00;0.00;;;;;;;;5098478;27;45356;-63
2023/10/20 01:23:25;;;;;;;;;0.00;0.00;;;;;;;;5098213;27;46663;-63
2023/10/20 01:25:53;;;;;;;;;0.00;0.00;;;;;;;;5079964;27;45370;-63
2023/10/20 01:28:19;;;;;;;;;0.00;0.00;;;;;;;;5098335;27;45433;-64
2023/10/20 01:30:44;;;;;;;;;0.00;0.00;;;;;;;;5098046;27;45672;-63
2023/10/20 01:33:09;;;;;;;;;0.00;0.00;;;;;;;;5097547;27;45390;-64
2023/10/20 01:35:35;;;;;;;;;0.00;0.00;;;;;;;;5098197;27;45352;-63
2023/10/20 01:38:00;;;;;;;;;0.00;0.00;;;;;;;;5098271;27;45459;-63
2023/10/20 01:40:27;;;;;;;;;0.00;0.00;;;;;;;;5097625;27;45645;-63
2023/10/20 01:42:52;;;;;;;;;0.00;0.00;;;;;;;;5097678;27;45554;-64
2023/10/20 01:45:17;;;;;;;;;0.00;0.00;;;;;;;;5077381;27;45399;-64
2023/10/20 01:47:43;;;;;;;;;0.00;0.00;;;;;;;;5076922;28;45416;-64
2023/10/20 01:50:09;;;;;;;;;0.00;0.00;;;;;;;;5077054;28;45407;-64
2023/10/20 01:52:34;;;;;;;;;1.00;0.00;;;;;;;;5076689;28;45637;-64
2023/10/20 01:54:59;;;;;;;;;0.00;0.00;;;;;;;;5077114;28;45423;-63
2023/10/20 01:57:24;;;;;;;;;0.00;0.00;;;;;;;;5077403;28;45497;-63
2023/10/20 01:59:49;;;;;;;;;0.00;0.00;;;;;;;;5077347;28;45500;-64
2023/10/20 02:02:15;;;;;;;;;0.00;0.00;;;;;;;;5076386;28;45378;-64
2023/10/20 02:04:41;;;;;;;;;0.50;0.00;;;;;;;;5076954;28;45388;-64
2023/10/20 02:07:06;;;;;;;;;1.00;0.00;;;;;;;;5077273;28;45609;-64
2023/10/20 02:09:31;;;;;;;;;0.00;0.00;;;;;;;;5096687;27;45386;-64
2023/10/20 02:11:58;;;;;;;;;0.00;0.00;;;;;;;;5097309;27;46603;-64
2023/10/20 02:14:24;;;;;;;;;0.00;0.00;;;;;;;;5097394;27;45336;-64
2023/10/20 02:16:50;;;;;;;;;0.00;0.00;;;;;;;;5097403;27;45550;-64
2023/10/20 02:19:15;;;;;;;;;0.00;0.00;;;;;;;;5097448;27;45403;-64
2023/10/20 02:21:41;;;;;;;;;0.00;0.00;;;;;;;;5096520;27;46400;-64
2023/10/20 02:24:07;;;;;;;;;0.00;0.00;;;;;;;;5096866;27;45552;-64
2023/10/20 02:26:33;;;;;;;;;0.00;0.00;;;;;;;;5078724;27;45416;-64
2023/10/20 02:28:58;;;;;;;;;0.00;0.00;;;;;;;;5096877;27;45362;-64
2023/10/20 02:31:23;;;;;;;;;0.00;0.00;;;;;;;;5096805;27;45442;-63
2023/10/20 02:33:48;;;;;;;;;0.00;0.00;;;;;;;;5096919;27;45350;-64
2023/10/20 02:36:17;;;;;;;;;0.00;0.00;;;;;;;;5097165;27;45380;-63
2023/10/20 02:38:42;;;;;;;;;0.00;0.00;;;;;;;;5097107;27;45552;-63
2023/10/20 02:41:08;;;;;;;;;1.00;0.00;;;;;;;;5078409;27;46856;-63
2023/10/20 02:43:33;;;;;;;;;0.00;0.00;;;;;;;;5091468;27;45371;-63
2023/10/20 02:45:59;;;;;;;;;0.00;0.00;;;;;;;;5076689;28;45300;-63
2023/10/20 02:48:24;;;;;;;;;0.00;0.00;;;;;;;;5075832;28;45484;-63
2023/10/20 02:50:50;;;;;;;;;0.00;0.00;;;;;;;;5076518;28;45406;-64
2023/10/20 02:53:15;;;;;;;;;0.00;0.00;;;;;;;;5076190;28;45455;-63
2023/10/20 02:55:44;;;;;;;;;0.00;0.00;;;;;;;;5076266;28;45433;-64
2023/10/20 02:58:10;;;;;;;;;0.00;0.00;;;;;;;;5076138;28;45436;-63
2023/10/20 03:00:39;;;;;;;;;0.00;0.00;;;;;;;;5076175;28;45439;-63
2023/10/20 03:03:04;;;;;;;;;0.00;0.00;;;;;;;;5075794;28;45423;-64
2023/10/20 03:05:30;;;;;;;;;0.00;0.00;;;;;;;;5076049;28;45479;-63
2023/10/20 03:07:56;;;;;;;;;0.00;0.00;;;;;;;;5082321;27;45370;-64
2023/10/20 03:10:22;;;;;;;;;0.00;0.00;;;;;;;;5095660;27;46103;-63
2023/10/20 03:12:47;;;;;;;;;0.00;0.00;;;;;;;;5077687;27;45458;-63
2023/10/20 03:15:12;;;;;;;;;0.00;0.00;;;;;;;;5095489;27;45419;-63
2023/10/20 03:17:37;;;;;;;;;0.00;0.00;;;;;;;;5096192;27;45490;-64
2023/10/20 03:20:08;;;;;;;;;0.00;0.00;;;;;;;;5095840;27;45402;-64
2023/10/20 03:22:33;;;;;;;;;0.00;0.00;;;;;;;;5096348;27;45328;-64
2023/10/20 03:25:00;;;;;;;;;0.00;0.00;;;;;;;;5096096;27;45351;-64
2023/10/20 03:27:25;;;;;;;;;0.00;0.00;;;;;;;;5096459;27;45480;-64
2023/10/20 03:29:50;;;;;;;;;0.00;0.00;;;;;;;;5096134;27;46761;-64
2023/10/20 03:32:15;;;;;;;;;0.00;0.00;;;;;;;;5095667;27;45364;-63
2023/10/20 03:34:41;;;;;;;;;0.00;0.00;;;;;;;;5096456;27;45439;-63
2023/10/20 03:37:06;;;;;;;;;0.00;0.00;;;;;;;;5096229;27;45409;-64
2023/10/20 03:39:33;;;;;;;;;0.00;0.00;;;;;;;;5095662;27;45548;-64
2023/10/20 03:41:58;;;;;;;;;1.00;0.00;;;;;;;;5095339;27;45431;-64
2023/10/20 03:44:23;;;;;;;;;0.00;0.00;;;;;;;;5083329;27;45376;-64
2023/10/20 03:46:49;;;;;;;;;0.00;0.00;;;;;;;;5075372;28;45441;-64
2023/10/20 03:49:18;;;;;;;;;0.00;0.00;;;;;;;;5075163;28;45920;-64
2023/10/20 03:51:49;;;;;;;;;0.00;0.00;;;;;;;;5075626;28;45310;-64
2023/10/20 03:54:15;;;;;;;;;0.00;0.00;;;;;;;;5075410;28;45468;-63
2023/10/20 03:56:41;;;;;;;;;1.40;0.00;;;;;;;;5075605;28;45526;-64
2023/10/20 03:59:06;;;;;;;;;0.00;0.00;;;;;;;;5075287;28;45402;-64
2023/10/20 04:01:32;;;;;;;;;0.00;0.00;;;;;;;;5075166;28;45392;-64
2023/10/20 04:03:57;;;;;;;;;0.00;0.00;;;;;;;;5074865;28;45308;-64
2023/10/20 04:06:22;;;;;;;;;1.00;0.00;;;;;;;;5075528;28;45297;-63
2023/10/20 04:08:48;;;;;;;;;0.00;0.00;;;;;;;;5088896;27;45492;-63
2023/10/20 04:11:14;;;;;;;;;0.00;0.00;;;;;;;;5095758;27;45373;-63
2023/10/20 04:13:39;;;;;;;;;1.00;0.00;;;;;;;;5095596;27;45412;-63
2023/10/20 04:16:14;;;;;;;;;0.50;0.00;;;;;;;;5095376;27;45526;-63
2023/10/20 04:18:42;;;;;;;;;0.00;0.00;;;;;;;;5095199;27;45437;-63
2023/10/20 04:21:08;;;;;;;;;0.00;0.00;;;;;;;;5095209;27;45442;-63
2023/10/20 04:23:33;;;;;;;;;0.00;0.00;;;;;;;;5095409;27;45419;-63
2023/10/20 04:26:00;;;;;;;;;0.00;0.00;;;;;;;;5096127;27;45514;-63
2023/10/20 04:28:32;;;;;;;;;0.20;0.00;;;;;;;;5098947;27;46469;-62
2023/10/20 04:42:44;;;;;;;;;0.00;0.00;;;;;;;;5098607;27;45329;-61
2023/10/20 04:58:11;;;;;;;;;0.80;0.00;;;;;;;;5077662;28;45436;-62
2023/10/20 05:00:37;;;;;;;;;0.20;0.00;;;;;;;;5077722;28;45465;-61
2023/10/20 05:05:44;;;;;;;;;0.00;0.00;;;;;;;;5078042;28;45330;-61
2023/10/20 05:10:37;;;;;;;;;0.00;0.00;;;;;;;;5098404;27;45397;-61
2023/10/20 05:13:02;;;;;;;;;0.00;0.00;;;;;;;;5098232;27;45285;-61
2023/10/20 05:15:31;;;;;;;;;0.00;0.00;;;;;;;;5098242;27;45255;-60
2023/10/20 05:17:57;;;;;;;;;0.00;0.00;;;;;;;;5097757;27;45464;-61
2023/10/20 05:20:23;;;;;;;;;0.00;0.00;;;;;;;;5097889;27;45380;-60
2023/10/20 05:22:49;;;;;;;;;0.00;0.00;;;;;;;;5097226;27;45417;-61
2023/10/20 05:25:14;;;;;;;;;1.00;0.50;;;;;;;;5079106;27;45384;-59
2023/10/20 05:27:40;;;;;;;;;0.00;0.00;;;;;;;;5097503;27;45473;-62
2023/10/20 05:30:05;;;;;;;;;1.00;0.00;;;;;;;;5097444;27;45582;-60
2023/10/20 05:32:33;;;;;;;;;0.00;0.00;;;;;;;;5097443;27;45441;-62
2023/10/20 05:34:59;;;;;;;;;0.00;0.00;;;;;;;;5079335;27;45418;-62
2023/10/20 05:37:24;;;;;;;;;1.00;0.00;;;;;;;;5096101;27;45438;-61
2023/10/20 05:39:49;;;;;;;;;0.25;0.00;;;;;;;;5097352;27;45842;-61
2023/10/20 05:42:16;;;;;;;;;0.00;0.00;;;;;;;;5097190;27;45325;-62
2023/10/20 05:44:48;;;;;;;;;1.60;0.00;;;;;;;;5082374;27;45584;-62
2023/10/20 05:47:13;;;;;;;;;0.00;0.00;;;;;;;;5076406;28;45382;-61
2023/10/20 05:49:39;;;;;;;;;0.00;0.00;;;;;;;;5077015;28;46420;-62
2023/10/20 05:52:05;;;;;;;;;0.50;0.00;;;;;;;;5076524;28;45278;-62
2023/10/20 05:54:31;;;;;;;;;0.00;0.00;;;;;;;;5076766;28;45408;-62
2023/10/20 05:56:56;;;;;;;;;0.00;0.00;;;;;;;;5077108;28;45335;-61
2023/10/20 05:59:21;;;;;;;;;0.00;0.00;;;;;;;;5076200;28;45634;-61
2023/10/20 06:01:47;;;;;;;;;0.00;0.00;;;;;;;;5076379;28;45400;-62
2023/10/20 06:04:12;;;;;;;;;0.00;0.00;;;;;;;;5076351;28;45374;-61
2023/10/20 06:06:37;;;;;;;;;0.00;0.00;;;;;;;;5076565;28;45301;-62
2023/10/20 06:09:02;;;;;;;;;0.00;0.00;;;;;;;;5091723;27;45364;-62
2023/10/20 06:11:28;;;;;;;;;0.00;0.00;;;;;;;;5096796;27;45472;-62
2023/10/20 06:13:53;;;;;;;;;1.00;0.00;;;;;;;;5096767;27;45391;-62
2023/10/20 06:16:18;;;;;;;;;0.00;0.00;;;;;;;;5096689;27;45440;-62
2023/10/20 06:18:44;;;;;;;;;0.00;0.00;;;;;;;;5095878;27;46373;-62
2023/10/20 06:21:13;;;;;;;;;0.00;0.00;;;;;;;;5096714;27;45385;-62
2023/10/20 06:23:40;;;;;;;;;0.00;0.00;;;;;;;;5096702;27;45380;-62
2023/10/20 06:26:05;;;;;;;;;0.00;0.00;;;;;;;;5096198;27;45389;-63
2023/10/20 06:28:31;;;;;;;;;0.00;0.00;;;;;;;;5096484;27;46720;-62
2023/10/20 06:31:00;;;;;;;;;0.75;0.00;;;;;;;;5077666;27;45461;-62
2023/10/20 06:33:32;;;;;;;;;0.00;0.00;;;;;;;;5095772;27;45351;-62
2023/10/20 06:36:04;;;;;;;;;0.00;0.00;;;;;;;;5096564;27;45477;-62
2023/10/20 06:38:30;;;;;;;;;0.00;0.00;;;;;;;;5095770;27;46082;-62
2023/10/20 06:40:56;;;;;;;;;0.00;0.00;;;;;;;;5095764;27;45419;-62
2023/10/20 06:43:21;;;;;;;;;2.00;0.00;;;;;;;;5092481;27;45344;-62
2023/10/20 06:45:54;;;;;;;;;0.00;0.00;;;;;;;;5075489;28;45305;-62
2023/10/20 06:48:20;;;;;;;;;3.20;2.20;;;;;;;;5074382;27;46951;-62
2023/10/20 06:50:46;;;;;;;;;3.00;1.20;;;;;;;;5075418;28;45429;-62
2023/10/20 06:53:11;;;;;;;;;0.00;0.00;;;;;;;;5075223;28;45337;-62
2023/10/20 06:55:40;;;;;;;;;2.25;1.00;;;;;;;;5075276;28;45391;-62
2023/10/20 06:58:05;;;;;;;;;1.00;1.00;;;;;;;;5074402;28;46160;-62
2023/10/20 07:00:30;;;;;;;;;1.00;1.00;;;;;;;;5074831;28;45274;-62
2023/10/20 07:02:55;;;;;;;;;3.50;1.25;;;;;;;;5074899;28;45419;-62
2023/10/20 07:05:23;;;;;;;;;3.75;2.75;;;;;;;;5075232;28;45370;-62
2023/10/20 07:07:49;;;;;;;;;4.40;4.40;;;;;;;;5080079;27;46172;-62
2023/10/20 07:10:14;;;;;;;;;3.75;2.50;;;;;;;;5095404;27;45324;-62
2023/10/20 07:12:39;;;;;;;;;4.75;1.75;;;;;;;;5094936;27;45294;-62
2023/10/20 07:15:05;;;;;;;;;4.25;3.50;;;;;;;;5095419;27;45424;-62
2023/10/20 07:17:31;;;;;;;;;0.50;0.50;;;;;;;;5094501;27;46039;-62
2023/10/20 07:19:56;;;;;;;;;1.25;0.00;;;;;;;;5094475;27;45494;-62
2023/10/20 07:22:21;;;;;;;;;0.50;0.50;;;;;;;;5094623;27;45593;-62
2023/10/20 07:24:47;;;;;;;;;1.50;1.50;;;;;;;;5094872;27;45462;-62
2023/10/20 07:27:12;;;;;;;;;1.75;1.75;;;;;;;;5094964;27;45520;-63
2023/10/20 07:29:38;;;;;;;;;0.00;0.00;;;;;;;;5094878;27;45423;-62
2023/10/20 07:32:03;;;;;;;;;0.75;0.50;;;;;;;;5094577;27;45486;-61
2023/10/20 07:34:28;;;;;;;;;1.00;1.00;;;;;;;;5094605;27;45498;-61
2023/10/20 07:36:54;;;;;;;;;0.75;0.00;;;;;;;;5095052;27;46515;-62
2023/10/20 07:39:19;;;;;;;;;0.75;0.75;;;;;;;;5094866;27;45364;-62
2023/10/20 07:41:45;;;;;;;;;0.25;0.00;;;;;;;;5094958;27;45434;-62
2023/10/20 07:44:11;;;;;;;;;0.25;0.25;;;;;;;;5083532;27;45366;-62
2023/10/20 07:46:36;;;;;;;;;1.40;1.00;;;;;;;;5073152;28;45358;-62
2023/10/20 07:49:03;;;;;;;;;0.50;0.50;;;;;;;;5074403;28;45282;-62
2023/10/20 07:51:28;;;;;;;;;2.20;2.00;;;;;;;;5074239;28;45313;-61
2023/10/20 07:53:53;;;;;;;;;1.00;1.00;;;;;;;;5074264;28;45518;-61
2023/10/20 07:56:18;;;;;;;;;1.00;0.00;;;;;;;;5074415;28;46399;-61
2023/10/20 07:58:44;;;;;;;;;0.00;0.00;;;;;;;;5074378;28;45372;-62
2023/10/20 08:01:09;;;;;;;;;1.00;0.00;;;;;;;;5073706;28;45306;-62
2023/10/20 08:03:34;;;;;;;;;0.25;0.25;;;;;;;;5073768;28;45274;-62
2023/10/20 08:06:02;;;;;;;;;0.50;0.50;;;;;;;;5073716;28;45593;-62
2023/10/20 08:08:27;;;;;;;;;1.00;1.00;;;;;;;;5084447;27;45413;-62
2023/10/20 08:10:52;;;;;;;;;1.25;1.00;;;;;;;;5094570;27;45455;-62
2023/10/20 08:13:18;;;;;;;;;0.25;0.25;;;;;;;;5094190;27;45506;-61
2023/10/20 08:15:43;;;;;;;;;2.50;1.25;;;;;;;;5094652;27;46625;-61
2023/10/20 08:18:09;;;;;;;;;1.00;1.00;;;;;;;;5094290;27;45435;-61
2023/10/20 08:20:34;;;;;;;;;0.00;0.00;;;;;;;;5094642;27;45502;-62
2023/10/20 08:23:00;;;;;;;;;0.00;0.00;;;;;;;;5094216;27;45399;-62
2023/10/20 08:25:25;;;;;;;;;0.00;0.00;;;;;;;;5094261;27;46358;-61
2023/10/20 08:27:50;;;;;;;;;0.00;0.00;;;;;;;;5094393;27;45395;-62
2023/10/20 08:30:16;;;;;;;;;1.00;0.00;;;;;;;;5094220;27;45529;-61
2023/10/20 08:32:42;;;;;;;;;1.00;1.00;;;;;;;;5093799;27;45517;-61
2023/10/20 08:35:08;;;;;;;;;0.80;0.80;;;;;;;;5093758;27;46177;-62
2023/10/20 08:37:33;;;;;;;;;0.75;0.75;;;;;;;;5093930;27;45386;-62
2023/10/20 08:39:58;;;;;;;;;2.75;2.00;;;;;;;;5094777;27;45381;-62
2023/10/20 08:42:23;;;;;;;;;0.75;0.00;;;;;;;;5094606;27;45313;-61
2023/10/20 08:44:50;;;;;;;;;2.00;0.00;;;;;;;;5078168;27;46442;-62
2023/10/20 08:47:16;;;;;;;;;0.60;0.60;;;;;;;;5073293;28;45420;-62
2023/10/20 08:49:46;;;;;;;;;0.80;0.00;;;;;;;;5074325;28;45422;-62
2023/10/20 08:52:11;;;;;;;;;0.00;0.00;;;;;;;;5074034;28;45483;-61
2023/10/20 08:54:37;;;;;;;;;2.00;1.75;;;;;;;;5073520;28;46314;-62
2023/10/20 08:57:03;;;;;;;;;0.25;0.25;;;;;;;;5073429;28;45336;-62
2023/10/20 08:59:28;;;;;;;;;1.00;1.00;;;;;;;;5073601;28;45393;-63
2023/10/20 09:01:54;;;;;;;;;2.75;2.50;;;;;;;;5073001;28;45463;-63
2023/10/20 09:04:22;;;;;;;;;2.75;1.50;;;;;;;;5073234;28;46330;-63
2023/10/20 09:06:48;;;;;;;;;0.00;0.00;;;;;;;;5073611;28;45406;-62
2023/10/20 09:09:14;;;;;;;;;0.25;0.25;;;;;;;;5090768;27;45380;-62
2023/10/20 09:11:43;;;;;;;;;3.50;3.50;;;;;;;;5093916;27;45381;-61
2023/10/20 09:14:09;;;;;;;;;8.50;7.00;;;;;;;;5096715;27;46201;-63
2023/10/20 09:16:34;;;;;;;;;6.60;6.00;;;;;;;;5096815;27;45426;-62
2023/10/20 09:19:00;;;;;;;;;4.00;4.00;;;;;;;;5078688;27;45411;-62
2023/10/20 09:21:26;;;;;;;;;3.50;3.25;;;;;;;;5097241;27;45484;-62
2023/10/20 09:23:58;;;;;;;;;30.50;27.50;;;;;;;;5096863;27;45497;-61
2023/10/20 09:26:24;;;;;;;;;2.00;2.00;;;;;;;;5077663;27;45471;-62
2023/10/20 09:28:50;;;;;;;;;5.60;5.60;;;;;;;;5096709;27;45291;-63
2023/10/20 09:31:16;;;;;;;;;0.80;0.80;;;;;;;;5097002;27;45434;-62
2023/10/20 09:33:42;;;;;;;;;1.00;1.00;;;;;;;;5096364;27;45446;-61
2023/10/20 09:36:07;;;;;;;;;8.50;8.50;;;;;;;;5097220;27;45419;-63
2023/10/20 09:38:35;;;;;;;;;2.00;2.00;;;;;;;;5096860;27;45381;-63
2023/10/20 09:41:13;;;;;;;;;2.20;2.00;;;;;;;;5096676;27;45475;-63
2023/10/20 09:43:48;;;;;;;;;2.40;2.20;;;;;;;;5089756;27;46157;-62
2023/10/20 09:46:39;;;;;;;;;6.00;4.40;;;;;;;;5075826;28;45368;-63
2023/10/20 09:49:15;;;;;;;;;1.80;1.20;;;;;;;;5076169;28;45371;-63
2023/10/20 09:51:44;;;;;;;;;1.80;1.80;;;;;;;;5076317;28;45415;-62
2023/10/20 09:54:10;;;;;;;;;6.80;5.80;;;;;;;;5075545;28;45756;-62
2023/10/20 09:56:35;;;;;;;;;9.50;5.50;;;;;;;;5076024;28;45527;-62
2023/10/20 09:59:00;;;;;;;;;7.00;5.00;;;;;;;;5058128;28;45479;-62
2023/10/20 10:01:26;;;;;;;;;0.50;0.00;;;;;;;;5075287;28;45507;-62
2023/10/20 10:04:03;;;;;;;;;2.75;2.75;;;;;;;;5057091;28;48273;-62
2023/10/20 10:06:33;;;;;;;;;15.00;13.25;;;;;;;;5075892;28;45396;-63
2023/10/20 10:08:58;;;;;;;;;24.75;22.25;;;;;;;;5091083;27;45356;-61
2023/10/20 10:11:27;;;;;;;;;20.00;17.50;;;;;;;;5096116;27;45340;-61
2023/10/20 10:13:58;;;;;;;;;8.00;8.00;;;;;;;;5095719;27;46633;-62
2023/10/20 10:16:23;;;;;;;;;6.60;6.40;;;;;;;;5095479;27;45404;-63
2023/10/20 10:18:49;;;;;;;;;7.75;7.75;;;;;;;;5096226;27;45276;-63
2023/10/20 10:21:24;;;;;;;;;8.75;6.00;;;;;;;;5095829;27;45562;-63
2023/10/20 10:24:08;;;;;;;;;2.20;2.20;;;;;;;;5095004;27;45575;-63
2023/10/20 10:26:33;;;;;;;;;8.20;8.20;;;;;;;;5076423;27;45378;-63
2023/10/20 10:28:59;;;;;;;;;9.00;8.25;;;;;;;;5095892;27;45408;-63
2023/10/20 10:31:34;;;;;;;;;13.75;12.50;;;;;;;;5095346;27;45375;-63
2023/10/20 10:34:01;;;;;;;;;17.00;15.75;;;;;;;;5095781;27;46432;-63
2023/10/20 10:36:26;;;;;;;;;14.20;14.20;;;;;;;;5077433;27;45427;-63
2023/10/20 10:38:51;;;;;;;;;13.25;9.75;;;;;;;;5096105;27;45382;-63
2023/10/20 10:41:22;;;;;;;;;10.75;9.25;;;;;;;;5095749;27;45597;-63
2023/10/20 10:43:52;;;;;;;;;4.60;4.60;;;;;;;;5088180;27;46432;-63
2023/10/20 10:46:17;;;;;;;;;7.40;6.00;;;;;;;;5056154;28;45466;-63
2023/10/20 10:48:45;;;;;;;;;13.75;10.50;;;;;;;;5075376;28;45347;-63
2023/10/20 10:51:10;;;;;;;;;13.25;13.00;;;;;;;;5056708;28;46115;-63
2023/10/20 10:53:35;;;;;;;;;9.75;8.50;;;;;;;;5074774;28;45435;-63
2023/10/20 10:56:01;;;;;;;;;12.00;6.00;;;;;;;;5075320;28;45414;-63
2023/10/20 10:58:26;;;;;;;;;6.75;5.25;;;;;;;;5075223;28;45341;-63
2023/10/20 11:00:54;;;;;;;;;6.75;6.00;;;;;;;;5056553;28;45586;-63
2023/10/20 11:03:19;;;;;;;;;3.20;2.60;;;;;;;;5075114;28;45495;-63
2023/10/20 11:05:45;;;;;;;;;0.50;0.50;;;;;;;;5075061;28;45368;-63
2023/10/20 11:08:10;;;;;;;;;2.00;2.00;;;;;;;;5083181;27;45322;-63
2023/10/20 11:10:37;;;;;;;;;5.00;3.75;;;;;;;;5095158;27;45451;-63
2023/10/20 11:13:07;;;;;;;;;3.80;3.00;;;;;;;;5095022;27;45687;-63
2023/10/20 11:15:32;;;;;;;;;3.00;2.00;;;;;;;;5094661;27;45357;-64
2023/10/20 11:17:59;;;;;;;;;2.25;2.25;;;;;;;;5095113;27;45461;-63
2023/10/20 11:20:25;;;;;;;;;4.60;4.60;;;;;;;;5095085;27;45498;-64
2023/10/20 11:22:54;;;;;;;;;1.00;1.00;;;;;;;;5094822;27;46548;-64
2023/10/20 11:25:19;;;;;;;;;2.80;2.80;;;;;;;;5094916;27;45391;-64
2023/10/20 11:27:53;;;;;;;;;4.00;3.50;;;;;;;;5094804;27;45456;-64
2023/10/20 11:30:21;;;;;;;;;3.40;3.40;;;;;;;;5094865;27;45410;-64
2023/10/20 11:32:47;;;;;;;;;4.20;3.20;;;;;;;;5094243;27;46682;-64
2023/10/20 11:35:13;;;;;;;;;5.25;3.50;;;;;;;;5075328;27;45759;-64
2023/10/20 11:37:38;;;;;;;;;3.00;1.75;;;;;;;;5076175;27;45428;-64
2023/10/20 11:40:04;;;;;;;;;3.50;3.50;;;;;;;;5094818;27;45317;-64
2023/10/20 11:42:29;;;;;;;;;9.00;9.00;;;;;;;;5094835;27;46074;-64
2023/10/20 11:44:55;;;;;;;;;11.00;9.75;;;;;;;;5077336;27;45463;-64
2023/10/20 11:47:20;;;;;;;;;6.75;5.00;;;;;;;;5073522;28;45340;-64
2023/10/20 11:49:45;;;;;;;;;7.25;7.25;;;;;;;;5073176;28;45434;-64
2023/10/20 11:52:11;;;;;;;;;10.25;10.25;;;;;;;;5073918;28;46367;-64
2023/10/20 11:54:36;;;;;;;;;5.00;5.00;;;;;;;;5073387;28;45416;-64
2023/10/20 11:57:02;;;;;;;;;11.00;9.75;;;;;;;;5073987;28;45415;-64
2023/10/20 11:59:27;;;;;;;;;5.50;5.00;;;;;;;;5073723;28;45518;-64
2023/10/20 12:01:52;;;;;;;;;3.25;3.00;;;;;;;;5073611;28;45420;-64
2023/10/20 12:04:17;;;;;;;;;4.50;3.50;;;;;;;;5055253;28;45462;-64
2023/10/20 12:06:44;;;;;;;;;1.25;1.00;;;;;;;;5073637;28;45409;-64
2023/10/20 12:09:10;;;;;;;;;1.00;1.00;;;;;;;;5089388;27;45534;-64
2023/10/20 12:11:36;;;;;;;;;1.00;1.00;;;;;;;;5075054;27;48091;-64
2023/10/20 12:14:02;;;;;;;;;3.00;3.00;;;;;;;;5092738;27;45371;-64
2023/10/20 12:16:27;;;;;;;;;2.00;2.00;;;;;;;;5092698;27;45426;-64
2023/10/20 12:18:52;;;;;;;;;2.50;2.50;;;;;;;;5084589;27;45533;-63
2023/10/20 12:21:18;;;;;;;;;2.00;2.00;;;;;;;;5054772;28;46313;-63
